createdAt,value
2022-08-17T00:03:13.550Z,29.10
2022-08-17T00:08:21.861Z,30.33
2022-08-17T00:13:31.181Z,26.50
2022-08-17T00:23:59.132Z,25.70
2022-08-17T00:29:03.839Z,23.02
2022-08-17T00:34:08.853Z,28.33
2022-08-17T00:39:12.121Z,28.13
2022-08-17T00:44:16.845Z,25.00
2022-08-17T00:49:23.637Z,27.70
2022-08-17T00:54:31.347Z,33.92
2022-08-17T00:59:39.082Z,26.10
2022-08-17T01:04:44.380Z,27.90
2022-08-17T01:09:48.498Z,27.83
2022-08-17T01:14:53.245Z,27.85
2022-08-17T01:19:57.102Z,32.00
2022-08-17T01:25:04.181Z,36.20
2022-08-17T01:30:58.066Z,29.23
2022-08-17T01:35:34.206Z,27.88
2022-08-17T01:40:41.268Z,26.25
2022-08-17T01:45:48.638Z,28.85
2022-08-17T01:51:07.657Z,22.98
2022-08-17T01:56:15.912Z,27.55
2022-08-17T02:01:22.959Z,29.08
2022-08-17T02:06:27.672Z,26.33
2022-08-17T02:11:34.668Z,27.98
2022-08-17T02:16:40.310Z,27.17
2022-08-17T02:21:45.841Z,31.15
2022-08-17T02:26:50.735Z,26.75
2022-08-17T02:31:54.408Z,29.05
2022-08-17T02:36:57.697Z,26.10
2022-08-17T02:42:03.759Z,29.83
2022-08-17T02:47:08.664Z,32.90
2022-08-17T02:52:11.967Z,27.08
2022-08-17T02:57:16.799Z,30.08
2022-08-17T03:02:20.098Z,29.95
2022-08-17T03:07:23.418Z,29.02
2022-08-17T03:12:33.457Z,30.67
2022-08-17T03:17:37.207Z,34.22
2022-08-17T03:22:43.190Z,26.30
2022-08-17T03:27:53.379Z,32.30
2022-08-17T03:33:00.715Z,36.05
2022-08-17T03:38:05.128Z,34.63
2022-08-17T03:43:11.059Z,32.35
2022-08-17T03:48:31.909Z,28.00
2022-08-17T03:54:05.226Z,34.17
2022-08-17T03:59:22.272Z,33.92
2022-08-17T04:04:27.573Z,33.63
2022-08-17T04:09:31.664Z,36.22
2022-08-17T04:14:51.920Z,36.28
2022-08-17T04:19:58.304Z,34.55
2022-08-17T04:25:04.280Z,36.67
2022-08-17T04:30:10.616Z,39.83
2022-08-17T04:35:13.991Z,39.17
2022-08-17T04:40:36.048Z,38.83
2022-08-17T04:45:55.356Z,32.90
2022-08-17T04:51:00.612Z,34.42
2022-08-17T04:56:04.971Z,37.38
2022-08-17T05:01:10.040Z,33.70
2022-08-17T05:06:13.680Z,38.75
2022-08-17T05:11:17.114Z,40.17
2022-08-17T05:16:23.280Z,34.35
2022-08-17T05:21:27.742Z,41.17
2022-08-17T05:26:31.040Z,56.42
2022-08-17T05:31:35.714Z,58.08
2022-08-17T05:36:43.868Z,50.42
2022-08-17T05:41:49.139Z,51.17
2022-08-17T05:46:54.417Z,51.28
2022-08-17T05:52:09.242Z,51.17
2022-08-17T05:57:39.527Z,57.17
2022-08-17T06:03:01.652Z,46.80
2022-08-17T06:08:14.195Z,47.10
2022-08-17T06:13:26.900Z,36.35
2022-08-17T06:18:37.808Z,29.73
2022-08-17T06:23:46.022Z,29.27
2022-08-17T06:28:54.099Z,25.47
2022-08-17T06:34:02.882Z,20.33
2022-08-17T06:39:30.074Z,31.63
2022-08-17T06:44:43.651Z,24.25
2022-08-17T06:50:04.510Z,28.90
2022-08-17T06:55:18.022Z,29.02
2022-08-17T07:00:25.662Z,22.33
2022-08-17T07:05:36.658Z,15.63
2022-08-17T07:10:47.305Z,15.38
2022-08-17T07:15:57.071Z,18.38
2022-08-17T07:21:14.192Z,24.77
2022-08-17T07:26:23.394Z,20.02
2022-08-17T07:31:30.552Z,16.13
2022-08-17T07:36:35.830Z,16.55
2022-08-17T07:41:58.104Z,12.30
2022-08-17T07:47:20.017Z,17.17
2022-08-17T07:52:51.457Z,20.48
2022-08-17T07:57:57.971Z,15.35
2022-08-17T08:03:14.831Z,18.55
2022-08-17T08:08:33.581Z,21.70
2022-08-17T08:13:42.714Z,13.75
2022-08-17T08:18:54.690Z,11.40
2022-08-17T08:24:14.522Z,15.82
2022-08-17T08:29:29.463Z,13.75
2022-08-17T08:35:03.023Z,10.02
2022-08-17T08:40:21.439Z,9.18
2022-08-17T08:50:47.583Z,10.52
2022-08-17T08:55:56.017Z,9.68
2022-08-17T09:06:37.431Z,13.57
2022-08-17T09:12:01.900Z,11.55
2022-08-17T09:17:13.765Z,10.10
2022-08-17T09:22:38.137Z,14.88
2022-08-17T09:27:53.042Z,17.27
2022-08-17T09:33:03.022Z,13.73
2022-08-17T09:38:16.082Z,12.43
2022-08-17T09:43:28.787Z,38.88
2022-08-17T09:48:38.602Z,16.50
2022-08-17T09:53:44.764Z,14.20
2022-08-17T09:59:10.283Z,12.40
2022-08-17T10:04:38.794Z,11.52
2022-08-17T10:09:56.143Z,10.02
2022-08-17T10:15:22.572Z,13.60
2022-08-17T10:20:30.708Z,14.77
2022-08-17T10:25:56.765Z,10.70
2022-08-17T10:31:33.088Z,10.70
2022-08-17T10:36:43.279Z,10.80
2022-08-17T10:41:50.564Z,9.23
2022-08-17T10:47:06.554Z,10.40
2022-08-17T10:52:44.311Z,9.48
2022-08-17T10:57:50.248Z,8.10
2022-08-17T11:02:57.573Z,8.93
2022-08-17T11:08:19.730Z,14.23
2022-08-17T11:13:37.795Z,10.88
2022-08-17T11:19:38.384Z,12.87
2022-08-17T11:24:48.001Z,12.68
2022-08-17T11:30:01.545Z,8.55
2022-08-17T11:35:26.853Z,8.15
2022-08-17T11:41:02.786Z,8.88
2022-08-17T11:46:21.100Z,12.73
2022-08-17T11:51:58.466Z,9.00
2022-08-17T11:57:23.097Z,12.20
2022-08-17T12:02:34.787Z,9.35
2022-08-17T12:07:44.389Z,9.57
2022-08-17T12:12:51.400Z,11.88
2022-08-17T12:17:58.064Z,9.38
2022-08-17T12:23:10.513Z,8.05
2022-08-17T12:28:23.614Z,11.70
2022-08-17T12:33:28.913Z,8.18
2022-08-17T12:38:36.310Z,8.27
2022-08-17T12:43:39.730Z,12.60
2022-08-17T12:48:59.303Z,70.90
2022-08-17T12:54:05.102Z,12.07
2022-08-17T12:59:08.552Z,7.20
2022-08-17T13:04:15.280Z,7.97
2022-08-17T13:09:36.018Z,13.45
2022-08-17T13:14:46.778Z,10.75
2022-08-17T13:19:52.247Z,8.73
2022-08-17T13:25:03.560Z,13.30
2022-08-17T13:30:12.879Z,10.35
2022-08-17T13:35:40.949Z,7.90
2022-08-17T13:40:50.463Z,8.98
2022-08-17T13:45:54.729Z,8.88
2022-08-17T13:51:13.904Z,10.23
2022-08-17T13:56:38.556Z,9.35
2022-08-17T14:01:51.162Z,7.07
2022-08-17T14:07:01.340Z,8.02
2022-08-17T14:12:10.739Z,8.27
2022-08-17T14:17:14.728Z,7.72
2022-08-17T14:22:23.824Z,9.60
2022-08-17T14:27:31.908Z,20.30
2022-08-17T14:32:38.509Z,9.68
2022-08-17T14:37:41.914Z,7.72
2022-08-17T14:42:46.708Z,9.73
2022-08-17T14:47:50.212Z,6.88
2022-08-17T14:52:56.121Z,9.60
2022-08-17T14:58:04.096Z,11.07
2022-08-17T15:03:07.850Z,7.75
2022-08-17T15:08:11.211Z,7.00
2022-08-17T15:13:20.159Z,7.57
2022-08-17T15:18:23.732Z,10.88
2022-08-17T15:23:28.176Z,6.15
2022-08-17T15:28:33.442Z,10.40
2022-08-17T15:33:42.461Z,7.80
2022-08-17T15:38:47.282Z,7.45
2022-08-17T15:43:52.102Z,7.68
2022-08-17T15:48:58.431Z,9.10
2022-08-17T15:54:19.342Z,10.88
2022-08-17T15:59:30.407Z,7.28
2022-08-17T16:04:35.029Z,7.68
2022-08-17T16:09:41.946Z,7.90
2022-08-17T16:14:48.519Z,11.35
2022-08-17T16:19:52.563Z,9.45
2022-08-17T16:24:57.508Z,7.85
2022-08-17T16:30:03.004Z,12.45
2022-08-17T16:35:09.098Z,10.00
2022-08-17T16:40:14.875Z,9.63
2022-08-17T16:45:23.990Z,8.40
2022-08-17T16:50:27.439Z,7.63
2022-08-17T16:55:30.874Z,9.40
2022-08-17T17:00:36.303Z,11.60
2022-08-17T17:06:03.808Z,11.45
2022-08-17T17:11:14.992Z,8.85
2022-08-17T17:16:36.503Z,10.60
2022-08-17T17:21:47.877Z,10.20
2022-08-17T17:27:15.023Z,10.32
2022-08-17T17:32:26.381Z,8.15
2022-08-17T17:37:35.145Z,8.70
2022-08-17T17:42:42.410Z,10.25
2022-08-17T17:47:48.226Z,8.85
2022-08-17T17:53:00.459Z,16.13
2022-08-17T17:58:23.270Z,12.48
2022-08-17T18:03:50.775Z,11.85
2022-08-17T18:09:06.339Z,11.63
2022-08-17T18:14:23.513Z,15.88
2022-08-17T18:19:30.079Z,12.85
2022-08-17T18:24:36.523Z,14.05
2022-08-17T18:29:44.347Z,13.82
2022-08-17T18:34:52.572Z,25.77
2022-08-17T18:39:56.171Z,15.95
2022-08-17T18:44:59.809Z,17.38
2022-08-17T18:50:24.789Z,11.55
2022-08-17T18:55:29.379Z,13.98
2022-08-17T19:00:37.026Z,12.52
2022-08-17T19:05:46.200Z,17.25
2022-08-17T19:10:52.867Z,12.40
2022-08-17T19:16:14.020Z,17.58
2022-08-17T19:21:24.768Z,15.32
2022-08-17T19:26:50.714Z,12.95
2022-08-17T19:31:58.716Z,17.77
2022-08-17T19:37:09.986Z,20.50
2022-08-17T19:42:19.713Z,14.25
2022-08-17T19:47:53.210Z,15.95
2022-08-17T19:53:02.734Z,16.35
2022-08-17T19:58:18.127Z,14.98
2022-08-17T20:03:26.766Z,18.85
2022-08-17T20:08:35.858Z,15.43
2022-08-17T20:13:42.728Z,19.85
2022-08-17T20:18:53.190Z,16.85
2022-08-17T20:24:05.743Z,17.98
2022-08-17T20:30:02.001Z,18.35
2022-08-17T20:35:26.224Z,21.45
2022-08-17T20:40:35.345Z,16.77
2022-08-17T20:46:04.125Z,15.98
2022-08-17T20:51:30.557Z,18.63
2022-08-17T20:56:56.277Z,17.70
2022-08-17T21:02:18.653Z,20.48
2022-08-17T21:07:29.263Z,19.60
2022-08-17T21:12:47.928Z,17.85
2022-08-17T21:18:06.666Z,20.63
2022-08-17T21:23:26.018Z,23.60
2022-08-17T21:29:00.218Z,22.77
2022-08-17T21:34:26.460Z,19.05
2022-08-17T21:39:34.167Z,17.35
2022-08-17T21:44:46.888Z,18.98
2022-08-17T21:49:50.304Z,18.75
2022-08-17T21:54:57.202Z,19.55
2022-08-17T22:00:06.619Z,20.70
2022-08-17T22:05:12.955Z,18.45
2022-08-17T22:10:30.625Z,17.75
2022-08-17T22:15:39.955Z,20.05
2022-08-17T22:20:43.354Z,18.38
2022-08-17T22:26:00.253Z,17.85
2022-08-17T22:31:06.672Z,18.30
2022-08-17T22:36:24.677Z,20.35
2022-08-17T22:41:40.665Z,20.08
2022-08-17T22:46:55.466Z,26.85
2022-08-17T22:52:24.346Z,20.83
2022-08-17T22:57:52.756Z,20.00
2022-08-17T23:03:19.112Z,23.70
2022-08-17T23:08:23.025Z,22.85
2022-08-17T23:13:28.133Z,20.70
2022-08-17T23:18:32.902Z,21.80
2022-08-17T23:23:37.192Z,23.40
2022-08-17T23:28:41.235Z,22.02
2022-08-17T23:33:47.056Z,22.33
2022-08-17T23:38:50.606Z,21.08
2022-08-17T23:43:55.305Z,20.50
2022-08-17T23:49:00.874Z,20.40
2022-08-17T23:54:12.708Z,22.63
2022-08-17T23:59:17.982Z,21.15
